createdAt,value
2018-10-19T00:00:19.568Z,68.72
2018-10-19T00:02:47.970Z,69.69
2018-10-19T00:05:16.426Z,67.42
2018-10-19T00:07:44.951Z,66.45
2018-10-19T00:10:13.303Z,67.37
2018-10-19T00:12:41.699Z,66.47
2018-10-19T00:15:10.117Z,66.90
2018-10-19T00:17:38.491Z,66.53
2018-10-19T00:20:07.525Z,68.04
2018-10-19T00:22:35.939Z,68.63
2018-10-19T00:25:04.438Z,66.71
2018-10-19T00:27:32.833Z,67.06
2018-10-19T00:30:01.233Z,68.30
2018-10-19T00:32:29.640Z,68.12
2018-10-19T00:34:58.031Z,68.27
2018-10-19T00:37:26.457Z,68.33
2018-10-19T00:39:55.023Z,69.07
2018-10-19T00:42:23.476Z,67.91
2018-10-19T00:44:51.888Z,68.46
2018-10-19T00:47:20.367Z,65.71
2018-10-19T00:49:48.766Z,67.37
2018-10-19T00:52:17.163Z,69.04
2018-10-19T00:54:45.563Z,65.62
2018-10-19T00:57:13.971Z,67.61
2018-10-19T00:59:42.335Z,65.97
2018-10-19T01:02:10.704Z,66.34
2018-10-19T01:04:39.093Z,67.71
2018-10-19T01:07:07.495Z,65.30
2018-10-19T01:09:35.879Z,65.46
2018-10-19T01:12:04.287Z,69.03
2018-10-19T01:14:32.619Z,67.77
2018-10-19T01:17:00.993Z,67.80
2018-10-19T01:19:29.267Z,67.27
2018-10-19T01:21:57.587Z,67.10
2018-10-19T01:24:25.884Z,67.34
2018-10-19T01:26:54.223Z,67.04
2018-10-19T01:29:22.603Z,67.93
2018-10-19T01:31:50.883Z,66.77
2018-10-19T01:34:19.194Z,67.20
2018-10-19T01:39:31.815Z,67.94
2018-10-19T01:42:00.340Z,66.48
2018-10-19T01:44:28.753Z,68.32
2018-10-19T01:46:57.137Z,68.49
2018-10-19T01:49:25.543Z,68.70
2018-10-19T01:51:54.349Z,69.24
2018-10-19T01:54:22.752Z,68.95
2018-10-19T01:56:51.158Z,68.76
2018-10-19T01:59:19.595Z,69.73
2018-10-19T02:01:48.032Z,68.00
2018-10-19T02:04:16.415Z,67.20
2018-10-19T02:06:44.804Z,65.89
2018-10-19T02:09:13.417Z,66.13
2018-10-19T02:11:41.723Z,65.98
2018-10-19T02:14:10.153Z,69.62
2018-10-19T02:16:38.515Z,70.57
2018-10-19T02:19:07.060Z,70.41
2018-10-19T02:21:35.424Z,66.86
2018-10-19T02:24:03.812Z,65.83
2018-10-19T02:26:32.234Z,65.75
2018-10-19T02:29:00.759Z,66.46
2018-10-19T02:31:29.123Z,66.08
2018-10-19T02:33:57.500Z,66.42
2018-10-19T02:36:25.859Z,66.58
2018-10-19T02:38:54.301Z,66.12
2018-10-19T02:41:22.669Z,66.28
2018-10-19T02:43:51.099Z,65.36
2018-10-19T02:46:19.528Z,67.93
2018-10-19T02:48:47.968Z,67.37
2018-10-19T02:51:16.496Z,65.77
2018-10-19T02:53:44.991Z,67.49
2018-10-19T02:56:13.413Z,66.32
2018-10-19T02:58:41.823Z,67.28
2018-10-19T03:01:10.448Z,66.17
2018-10-19T03:03:38.852Z,66.47
2018-10-19T03:06:07.255Z,66.69
2018-10-19T03:08:35.676Z,67.78
2018-10-19T03:11:04.103Z,65.80
2018-10-19T03:13:33.443Z,68.32
2018-10-19T03:16:01.788Z,67.79
2018-10-19T03:18:30.235Z,68.88
2018-10-19T03:20:58.581Z,68.40
2018-10-19T03:23:26.976Z,68.33
2018-10-19T03:25:55.319Z,68.57
2018-10-19T03:28:23.712Z,67.78
2018-10-19T03:30:52.226Z,66.43
2018-10-19T03:33:20.552Z,67.67
2018-10-19T03:35:49.036Z,68.52
2018-10-19T03:38:17.691Z,67.30
2018-10-19T03:40:46.372Z,68.68
2018-10-19T03:43:14.987Z,68.02
2018-10-19T03:45:43.673Z,69.05
2018-10-19T03:48:12.253Z,67.80
2018-10-19T03:50:40.817Z,69.45
2018-10-19T03:53:09.405Z,68.47
2018-10-19T03:55:38.043Z,68.16
2018-10-19T03:58:07.897Z,68.44
2018-10-19T04:00:36.494Z,69.15
2018-10-19T04:03:05.252Z,71.38
2018-10-19T04:05:33.947Z,70.92
2018-10-19T04:08:02.718Z,68.50
2018-10-19T04:10:31.221Z,69.18
2018-10-19T04:12:59.873Z,68.95
2018-10-19T04:15:28.580Z,68.87
2018-10-19T04:17:57.249Z,69.59
2018-10-19T04:20:26.189Z,67.89
2018-10-19T04:23:00.181Z,66.66
2018-10-19T04:25:28.724Z,68.02
2018-10-19T04:27:57.362Z,69.43
2018-10-19T04:30:26.047Z,67.12
2018-10-19T04:32:54.673Z,66.83
2018-10-19T04:35:23.258Z,69.23
2018-10-19T04:37:51.945Z,68.18
2018-10-19T04:40:22.740Z,67.43
2018-10-19T04:42:51.469Z,67.97
2018-10-19T04:45:21.167Z,66.67
2018-10-19T04:47:49.908Z,66.76
2018-10-19T04:50:18.542Z,68.21
2018-10-19T04:52:52.727Z,67.13
2018-10-19T04:55:22.950Z,69.47
2018-10-19T04:57:52.395Z,68.98
2018-10-19T05:00:26.565Z,68.79
2018-10-19T05:02:55.362Z,69.24
2018-10-19T05:05:30.346Z,68.44
2018-10-19T05:07:59.752Z,68.42
2018-10-19T05:10:28.476Z,68.29
2018-10-19T05:12:57.092Z,70.24
2018-10-19T05:15:26.667Z,69.78
2018-10-19T05:17:54.985Z,70.75
2018-10-19T05:20:23.310Z,68.25
2018-10-19T05:22:51.606Z,69.58
2018-10-19T05:25:19.916Z,71.06
2018-10-19T05:27:48.215Z,72.60
2018-10-19T05:30:18.525Z,71.76
2018-10-19T05:32:46.931Z,72.39
2018-10-19T05:35:15.220Z,69.79
2018-10-19T05:37:43.609Z,70.80
2018-10-19T05:40:12.028Z,68.76
2018-10-19T05:42:40.723Z,69.87
2018-10-19T05:45:10.226Z,69.87
2018-10-19T05:47:38.517Z,71.85
2018-10-19T05:50:07.766Z,70.94
2018-10-19T05:52:36.582Z,70.99
2018-10-19T05:55:04.847Z,70.12
2018-10-19T05:57:33.191Z,70.27
2018-10-19T06:00:01.607Z,70.62
2018-10-19T06:02:30.297Z,71.15
2018-10-19T06:04:58.560Z,71.52
2018-10-19T06:07:26.999Z,73.20
2018-10-19T06:09:55.375Z,71.61
2018-10-19T06:12:24.775Z,70.49
2018-10-19T06:14:53.215Z,70.35
2018-10-19T06:17:21.763Z,71.70
2018-10-19T06:19:50.098Z,72.10
2018-10-19T06:22:19.548Z,70.45
2018-10-19T06:24:47.878Z,70.54
2018-10-19T06:27:16.494Z,71.90
2018-10-19T06:29:44.877Z,71.03
2018-10-19T06:32:13.779Z,71.68
2018-10-19T06:34:42.123Z,71.62
2018-10-19T06:37:10.675Z,71.24
2018-10-19T06:39:39.288Z,69.72
2018-10-19T06:42:07.919Z,68.92
2018-10-19T06:44:36.261Z,69.42
2018-10-19T06:47:05.500Z,70.58
2018-10-19T06:49:34.095Z,70.03
2018-10-19T06:52:03.731Z,70.02
2018-10-19T06:54:32.559Z,70.47
2018-10-19T06:57:01.111Z,69.19
2018-10-19T06:59:30.191Z,69.78
2018-10-19T07:01:58.608Z,69.50
2018-10-19T07:04:27.150Z,69.88
2018-10-19T07:06:55.655Z,69.30
2018-10-19T07:09:24.551Z,71.53
2018-10-19T07:11:52.939Z,70.61
2018-10-19T07:14:21.603Z,71.51
2018-10-19T07:16:50.107Z,72.09
2018-10-19T07:19:18.545Z,71.43
2018-10-19T07:21:47.383Z,70.66
2018-10-19T07:24:15.907Z,70.47
2018-10-19T07:26:44.331Z,70.08
2018-10-19T07:29:12.979Z,68.73
2018-10-19T07:31:47.779Z,68.02
2018-10-19T07:34:16.357Z,69.57
2018-10-19T07:36:44.769Z,69.12
2018-10-19T07:39:13.076Z,69.22
2018-10-19T07:41:41.512Z,68.37
2018-10-19T07:44:09.908Z,68.85
2018-10-19T07:46:38.245Z,67.00
2018-10-19T07:49:06.731Z,67.58
2018-10-19T07:51:35.223Z,68.87
2018-10-19T07:54:03.829Z,68.25
2018-10-19T07:56:32.165Z,66.39
2018-10-19T07:59:00.737Z,68.51
2018-10-19T08:01:29.343Z,68.17
2018-10-19T08:03:57.787Z,68.60
2018-10-19T08:06:26.859Z,68.03
2018-10-19T08:08:55.405Z,68.72
2018-10-19T08:11:23.799Z,68.63
2018-10-19T08:13:52.237Z,69.19
2018-10-19T08:16:20.862Z,68.37
2018-10-19T08:18:49.244Z,68.99
2018-10-19T08:21:17.876Z,70.76
2018-10-19T08:23:46.365Z,70.02
2018-10-19T08:26:15.342Z,67.49
2018-10-19T08:28:43.623Z,68.81
2018-10-19T08:31:12.177Z,68.04
2018-10-19T08:33:40.623Z,67.76
2018-10-19T08:36:09.266Z,67.29
2018-10-19T08:38:37.572Z,67.99
2018-10-19T08:41:06.325Z,67.53
2018-10-19T08:43:34.654Z,65.01
2018-10-19T08:46:08.441Z,64.91
2018-10-19T08:48:37.690Z,64.41
2018-10-19T08:51:06.048Z,65.49
2018-10-19T08:53:34.508Z,64.62
2018-10-19T08:56:03.049Z,63.93
2018-10-19T08:58:31.432Z,62.79
2018-10-19T09:01:00.005Z,62.40
2018-10-19T09:03:28.338Z,65.32
2018-10-19T09:05:56.798Z,62.94
2018-10-19T09:08:25.250Z,63.10
2018-10-19T09:10:54.481Z,62.88
2018-10-19T09:13:23.217Z,61.93
2018-10-19T09:15:51.731Z,64.62
2018-10-19T09:18:21.194Z,63.82
2018-10-19T09:20:50.098Z,61.93
2018-10-19T09:23:18.641Z,63.07
2018-10-19T09:25:47.139Z,64.13
2018-10-19T09:28:15.520Z,63.52
2018-10-19T09:30:43.994Z,62.98
2018-10-19T09:33:12.578Z,63.39
2018-10-19T09:35:41.220Z,62.73
2018-10-19T09:38:09.651Z,62.47
2018-10-19T09:40:38.238Z,61.79
2018-10-19T09:43:07.187Z,63.24
2018-10-19T09:45:35.772Z,59.97
2018-10-19T09:48:04.646Z,59.25
2018-10-19T09:50:33.439Z,58.78
2018-10-19T09:53:01.882Z,58.00
2018-10-19T09:55:30.348Z,60.15
2018-10-19T09:57:59.108Z,63.26
2018-10-19T10:00:33.174Z,60.70
2018-10-19T10:03:01.852Z,61.33
2018-10-19T10:05:30.251Z,59.27
2018-10-19T10:07:58.865Z,59.62
2018-10-19T10:10:27.446Z,58.99
2018-10-19T10:12:55.983Z,59.49
2018-10-19T10:15:24.442Z,60.81
2018-10-19T10:17:53.117Z,60.96
2018-10-19T10:20:21.580Z,58.82
2018-10-19T10:22:50.414Z,59.27
2018-10-19T10:25:18.859Z,59.10
2018-10-19T10:27:47.535Z,59.03
2018-10-19T10:30:16.131Z,60.50
2018-10-19T10:32:44.767Z,59.45
2018-10-19T10:35:13.307Z,59.89
2018-10-19T10:37:41.761Z,59.34
2018-10-19T10:40:11.316Z,58.63
2018-10-19T10:42:40.051Z,59.00
2018-10-19T10:45:08.821Z,59.60
2018-10-19T10:47:38.236Z,58.37
2018-10-19T10:50:06.931Z,54.90
2018-10-19T10:52:35.704Z,56.77
2018-10-19T10:55:06.095Z,55.50
2018-10-19T10:57:34.520Z,56.62
2018-10-19T11:00:03.104Z,56.76
2018-10-19T11:02:32.264Z,56.10
2018-10-19T11:05:01.011Z,54.13
2018-10-19T11:07:30.799Z,50.69
2018-10-19T11:10:00.230Z,48.74
2018-10-19T11:12:29.211Z,49.16
2018-10-19T11:14:58.317Z,50.24
2018-10-19T11:17:26.794Z,49.56
2018-10-19T11:19:55.602Z,49.39
2018-10-19T11:22:24.484Z,48.82
2018-10-19T11:27:33.543Z,50.93
2018-10-19T11:30:02.108Z,50.53
2018-10-19T11:32:30.668Z,48.94
2018-10-19T11:34:59.161Z,46.05
2018-10-19T11:37:27.609Z,42.64
2018-10-19T11:40:07.556Z,45.29
2018-10-19T11:42:35.892Z,48.32
2018-10-19T11:45:04.568Z,44.08
2018-10-19T11:47:32.994Z,41.63
2018-10-19T11:50:01.367Z,40.36
2018-10-19T11:52:29.736Z,41.98
2018-10-19T11:54:58.256Z,42.04
2018-10-19T11:57:26.662Z,40.91
2018-10-19T11:59:56.120Z,38.02
2018-10-19T12:02:24.629Z,38.86
2018-10-19T12:04:53.063Z,42.78
2018-10-19T12:07:21.551Z,43.81
2018-10-19T12:09:49.979Z,46.73
2018-10-19T12:12:18.459Z,49.17
2018-10-19T12:14:46.852Z,51.31
2018-10-19T12:17:15.433Z,49.88
2018-10-19T12:19:44.000Z,48.05
2018-10-19T12:22:12.402Z,46.42
2018-10-19T12:24:40.858Z,47.85
2018-10-19T12:27:09.436Z,44.84
2018-10-19T12:29:38.567Z,42.52
2018-10-19T12:32:07.284Z,43.16
2018-10-19T12:34:35.787Z,42.73
2018-10-19T12:37:04.346Z,43.19
2018-10-19T12:39:32.792Z,45.49
2018-10-19T12:42:01.343Z,43.88
2018-10-19T12:44:29.850Z,45.10
2018-10-19T12:47:10.532Z,44.39
2018-10-19T12:49:39.117Z,47.17
2018-10-19T12:52:07.687Z,45.84
2018-10-19T12:54:36.294Z,47.22
2018-10-19T12:57:06.529Z,48.06
2018-10-19T12:59:35.093Z,48.19
2018-10-19T13:02:03.875Z,47.69
2018-10-19T13:04:32.348Z,48.99
2018-10-19T13:07:00.769Z,47.68
2018-10-19T13:09:29.226Z,46.82
2018-10-19T13:11:57.534Z,47.77
2018-10-19T13:14:25.967Z,46.18
2018-10-19T13:16:54.303Z,45.35
2018-10-19T13:19:22.714Z,46.11
2018-10-19T13:21:51.107Z,46.72
2018-10-19T13:24:19.538Z,47.20
2018-10-19T13:26:47.964Z,46.57
2018-10-19T13:29:16.542Z,45.91
2018-10-19T13:31:44.988Z,46.49
2018-10-19T13:34:13.464Z,45.31
2018-10-19T13:36:42.967Z,45.04
2018-10-19T13:39:12.882Z,45.19
2018-10-19T13:41:41.538Z,45.61
2018-10-19T13:44:10.183Z,45.24
2018-10-19T13:46:38.599Z,43.81
2018-10-19T13:49:07.064Z,44.40
2018-10-19T13:51:35.668Z,42.95
2018-10-19T13:54:04.496Z,43.29
2018-10-19T13:56:33.243Z,42.70
2018-10-19T13:59:01.665Z,43.43
2018-10-19T14:01:30.167Z,44.92
2018-10-19T14:03:58.607Z,45.16
2018-10-19T14:06:27.310Z,43.97
2018-10-19T14:08:55.769Z,44.66
2018-10-19T14:11:24.248Z,45.77
2018-10-19T14:13:52.615Z,45.19
2018-10-19T14:16:21.107Z,44.35
2018-10-19T14:18:49.583Z,43.98
2018-10-19T14:21:17.944Z,43.81
2018-10-19T14:23:46.419Z,44.53
2018-10-19T14:26:14.840Z,45.02
2018-10-19T14:28:43.220Z,45.54
2018-10-19T14:31:11.626Z,44.94
2018-10-19T14:33:40.076Z,44.25
2018-10-19T14:36:08.645Z,45.35
2018-10-19T14:38:37.259Z,45.42
2018-10-19T14:41:05.700Z,45.40
2018-10-19T14:43:34.035Z,46.55
2018-10-19T14:46:02.430Z,46.29
2018-10-19T14:48:30.815Z,45.29
2018-10-19T14:50:59.188Z,44.85
2018-10-19T14:53:27.568Z,47.85
2018-10-19T14:55:55.911Z,46.78
2018-10-19T14:58:24.260Z,46.91
2018-10-19T15:00:52.684Z,45.83
2018-10-19T15:03:21.046Z,46.97
2018-10-19T15:05:49.425Z,47.65
2018-10-19T15:08:17.900Z,47.13
2018-10-19T15:10:46.592Z,46.83
2018-10-19T15:13:14.571Z,46.06
2018-10-19T15:15:42.959Z,46.68
2018-10-19T15:18:11.430Z,46.07
2018-10-19T15:20:39.713Z,46.82
2018-10-19T15:23:07.984Z,47.22
2018-10-19T15:25:36.290Z,47.49
2018-10-19T15:28:04.629Z,47.72
2018-10-19T15:30:32.921Z,47.82
2018-10-19T15:33:01.255Z,48.09
2018-10-19T15:35:29.512Z,48.47
2018-10-19T15:37:57.787Z,48.21
2018-10-19T15:40:37.875Z,47.89
2018-10-19T15:43:06.250Z,47.34
2018-10-19T15:45:34.644Z,47.86
2018-10-19T15:48:03.010Z,49.26
2018-10-19T15:50:31.424Z,48.62
2018-10-19T15:52:59.743Z,49.25
2018-10-19T15:55:28.019Z,49.10
2018-10-19T15:57:56.420Z,50.32
2018-10-19T16:00:25.045Z,48.73
2018-10-19T16:02:53.397Z,49.24
2018-10-19T16:05:21.873Z,49.62
2018-10-19T16:07:50.204Z,49.16
2018-10-19T16:10:18.627Z,50.04
2018-10-19T16:12:46.992Z,49.53
2018-10-19T16:15:15.423Z,50.93
2018-10-19T16:17:43.692Z,50.14
2018-10-19T16:20:12.024Z,49.86
2018-10-19T16:22:40.396Z,49.46
2018-10-19T16:25:08.923Z,49.59
2018-10-19T16:27:38.346Z,50.29
2018-10-19T16:30:10.549Z,49.92
2018-10-19T16:32:39.298Z,51.74
2018-10-19T16:35:08.200Z,50.73
2018-10-19T16:37:37.276Z,51.32
2018-10-19T16:40:05.732Z,51.01
2018-10-19T16:42:34.092Z,51.32
2018-10-19T16:45:02.480Z,52.71
2018-10-19T16:47:30.994Z,52.29
2018-10-19T16:49:59.332Z,52.38
2018-10-19T16:52:27.728Z,51.52
2018-10-19T16:54:55.961Z,51.10
2018-10-19T16:57:24.223Z,52.31
2018-10-19T16:59:52.646Z,52.59
2018-10-19T17:02:20.912Z,52.19
2018-10-19T17:04:49.467Z,50.68
2018-10-19T17:07:17.850Z,51.20
2018-10-19T17:09:46.319Z,52.76
2018-10-19T17:12:14.694Z,51.74
2018-10-19T17:14:42.883Z,53.74
2018-10-19T17:17:11.219Z,53.80
2018-10-19T17:19:39.508Z,53.60
2018-10-19T17:22:07.831Z,53.04
2018-10-19T17:24:36.130Z,54.71
2018-10-19T17:27:04.467Z,53.13
2018-10-19T17:29:32.684Z,54.34
2018-10-19T17:32:00.940Z,54.69
2018-10-19T17:34:29.210Z,54.33
2018-10-19T17:36:57.524Z,53.93
2018-10-19T17:39:25.763Z,52.93
2018-10-19T17:41:54.038Z,54.75
2018-10-19T17:44:22.319Z,55.76
2018-10-19T17:46:50.587Z,57.25
2018-10-19T17:49:18.865Z,55.06
2018-10-19T17:51:47.176Z,56.61
2018-10-19T17:54:15.803Z,55.42
2018-10-19T17:56:43.944Z,56.80
2018-10-19T17:59:12.270Z,56.29
2018-10-19T18:01:40.547Z,56.92
2018-10-19T18:04:08.915Z,56.42
2018-10-19T18:06:37.287Z,56.30
2018-10-19T18:09:08.711Z,56.87
2018-10-19T18:11:37.029Z,55.83
2018-10-19T18:14:05.615Z,56.11
2018-10-19T18:16:33.951Z,55.44
2018-10-19T18:19:02.283Z,56.35
2018-10-19T18:21:30.695Z,57.46
2018-10-19T18:23:58.967Z,58.26
2018-10-19T18:26:27.257Z,58.50
2018-10-19T18:28:55.568Z,58.56
2018-10-19T18:31:23.811Z,57.00
2018-10-19T18:33:52.097Z,58.24
2018-10-19T18:36:20.396Z,60.52
2018-10-19T18:38:48.685Z,59.42
2018-10-19T18:41:16.986Z,58.86
2018-10-19T18:43:45.285Z,58.07
2018-10-19T18:46:13.567Z,59.20
2018-10-19T18:48:41.835Z,59.41
2018-10-19T18:51:10.167Z,60.92
2018-10-19T18:53:38.451Z,58.39
2018-10-19T18:56:06.778Z,58.54
2018-10-19T18:58:35.037Z,57.94
2018-10-19T19:01:03.383Z,59.07
2018-10-19T19:03:31.698Z,58.66
2018-10-19T19:06:00.114Z,60.39
2018-10-19T19:08:28.470Z,59.45
2018-10-19T19:10:56.855Z,59.33
2018-10-19T19:13:30.127Z,59.24
2018-10-19T19:15:59.234Z,59.63
2018-10-19T19:18:27.576Z,59.56
2018-10-19T19:20:57.147Z,59.61
2018-10-19T19:23:25.499Z,58.60
2018-10-19T19:25:59.200Z,57.62
2018-10-19T19:28:27.589Z,59.91
2018-10-19T19:30:55.982Z,61.62
2018-10-19T19:33:29.543Z,60.53
2018-10-19T19:35:57.995Z,60.47
2018-10-19T19:38:26.375Z,60.89
2018-10-19T19:41:00.153Z,61.37
2018-10-19T19:43:28.655Z,60.16
2018-10-19T19:45:57.107Z,60.80
2018-10-19T19:50:35.709Z,61.67
2018-10-19T19:53:04.098Z,62.22
2018-10-19T19:55:32.395Z,61.58
2018-10-19T19:58:00.828Z,61.90
2018-10-19T20:00:29.178Z,61.37
2018-10-19T20:02:57.749Z,62.59
2018-10-19T20:05:26.116Z,62.18
2018-10-19T20:07:54.526Z,63.62
2018-10-19T20:10:22.894Z,61.92
2018-10-19T20:12:51.287Z,60.51
2018-10-19T20:15:19.714Z,60.35
2018-10-19T20:17:48.074Z,60.79
2018-10-19T20:20:16.590Z,62.05
2018-10-19T20:22:44.892Z,62.30
2018-10-19T20:25:13.523Z,61.65
2018-10-19T20:27:41.967Z,60.57
2018-10-19T20:30:11.959Z,61.81
2018-10-19T20:32:40.571Z,61.14
2018-10-19T20:35:09.430Z,62.75
2018-10-19T20:37:37.920Z,62.79
2018-10-19T20:40:06.376Z,61.90
2018-10-19T20:42:35.034Z,62.54
2018-10-19T20:45:03.789Z,64.05
2018-10-19T20:47:32.279Z,61.63
2018-10-19T20:50:00.881Z,61.93
2018-10-19T20:52:29.319Z,61.63
2018-10-19T20:54:57.891Z,62.64
2018-10-19T20:57:26.335Z,62.06
2018-10-19T20:59:54.825Z,61.43
2018-10-19T21:02:23.281Z,60.13
2018-10-19T21:04:51.699Z,60.68
2018-10-19T21:07:20.205Z,62.77
2018-10-19T21:09:48.623Z,63.53
2018-10-19T21:12:17.041Z,61.28
2018-10-19T21:14:45.487Z,61.53
2018-10-19T21:17:14.024Z,60.53
2018-10-19T21:19:42.383Z,62.30
2018-10-19T21:22:10.759Z,62.04
2018-10-19T21:24:39.219Z,62.17
2018-10-19T21:27:07.655Z,63.46
2018-10-19T21:29:36.148Z,62.53
2018-10-19T21:32:04.907Z,62.38
2018-10-19T21:34:33.214Z,64.24
2018-10-19T21:37:01.831Z,63.89
2018-10-19T21:39:30.239Z,63.40
2018-10-19T21:41:58.626Z,63.51
2018-10-19T21:44:27.010Z,63.22
2018-10-19T21:46:55.461Z,64.15
2018-10-19T21:49:23.851Z,64.38
2018-10-19T21:51:52.567Z,63.49
2018-10-19T21:54:21.034Z,63.68
2018-10-19T21:56:49.515Z,64.12
2018-10-19T21:59:18.025Z,65.82
2018-10-19T22:01:46.454Z,64.30
2018-10-19T22:04:14.931Z,65.50
2018-10-19T22:06:43.398Z,63.22
2018-10-19T22:09:13.000Z,63.37
2018-10-19T22:11:41.878Z,63.72
2018-10-19T22:14:10.857Z,63.72
2018-10-19T22:16:40.095Z,63.31
2018-10-19T22:19:09.379Z,64.83
2018-10-19T22:21:37.774Z,65.51
2018-10-19T22:24:06.940Z,65.36
2018-10-19T22:26:35.323Z,64.16
2018-10-19T22:29:03.781Z,63.83
2018-10-19T22:31:32.108Z,63.09
2018-10-19T22:34:00.667Z,63.75
2018-10-19T22:36:29.027Z,65.60
2018-10-19T22:38:57.465Z,64.19
2018-10-19T22:41:25.868Z,65.78
2018-10-19T22:43:54.248Z,64.87
2018-10-19T22:46:22.600Z,65.55
2018-10-19T22:48:51.086Z,65.18
2018-10-19T22:51:19.527Z,63.81
2018-10-19T22:53:47.921Z,65.49
2018-10-19T22:56:16.485Z,65.97
2018-10-19T22:58:44.815Z,66.52
2018-10-19T23:01:13.335Z,65.91
2018-10-19T23:03:41.687Z,64.88
2018-10-19T23:06:10.144Z,63.92
2018-10-19T23:08:38.543Z,64.47
2018-10-19T23:11:06.966Z,66.71
2018-10-19T23:13:35.276Z,66.65
2018-10-19T23:16:03.687Z,65.42
2018-10-19T23:18:32.101Z,64.89
2018-10-19T23:21:00.599Z,65.44
2018-10-19T23:23:28.959Z,66.58
2018-10-19T23:25:57.357Z,67.60
2018-10-19T23:28:25.703Z,68.31
2018-10-19T23:30:54.089Z,69.19
2018-10-19T23:33:22.407Z,68.17
2018-10-19T23:35:50.775Z,67.70
2018-10-19T23:38:19.128Z,66.25
2018-10-19T23:40:47.500Z,67.71
2018-10-19T23:43:15.943Z,66.40
2018-10-19T23:45:44.467Z,66.43
2018-10-19T23:48:12.940Z,65.11
2018-10-19T23:50:41.357Z,66.16
2018-10-19T23:53:09.885Z,64.70
2018-10-19T23:55:38.252Z,66.35
2018-10-19T23:58:06.832Z,65.07
